Time;durP1;ratioP1;P1;durP2;ratioP2;P2;SDS_P1;SDS_P2;PMS_P1;PMS_P2;Temp;Humidity;BMP_temperature;BMP_pressure;BME280_temperature;BME280_humidity;BME280_pressure;Samples;Min_cycle;Max_cycle;Signal;HPM_P1;HPM_P2
2020/12/29 00:00:34;;;;;;;29.92;18.38;;;;;;;2.93;96.07;98079.94;5067510;28;20825;-79
2020/12/29 00:02:59;;;;;;;31.53;18.23;;;;;;;2.92;95.94;98078.22;5064077;28;20078;-81
2020/12/29 00:05:25;;;;;;;37.83;19.53;;;;;;;2.85;95.81;98081.53;5066483;28;20368;-81
2020/12/29 00:07:53;;;;;;;34.80;21.13;;;;;;;2.82;96.15;98084.03;5064686;28;20028;-82
2020/12/29 00:10:25;;;;;;;33.80;19.53;;;;;;;2.85;95.97;98075.63;5065125;28;20274;-81
2020/12/29 00:12:51;;;;;;;32.63;19.30;;;;;;;2.86;96.10;98078.16;5065263;28;20017;-81
2020/12/29 00:15:16;;;;;;;32.47;19.98;;;;;;;2.86;95.83;98083.22;5064649;28;20027;-80
2020/12/29 00:17:42;;;;;;;31.65;19.63;;;;;;;2.84;95.74;98081.53;5082854;28;20032;-80
2020/12/29 00:20:07;;;;;;;31.52;18.60;;;;;;;2.83;95.84;98083.19;5084764;28;20028;-80
2020/12/29 00:22:33;;;;;;;34.83;20.08;;;;;;;2.77;96.08;98090.75;5065868;28;20024;-80
2020/12/29 00:24:58;;;;;;;32.17;18.85;;;;;;;2.78;96.16;98095.84;5067108;28;20020;-82
2020/12/29 00:27:24;;;;;;;32.80;18.27;;;;;;;2.78;95.92;98100.06;5066691;28;20020;-80
2020/12/29 00:29:49;;;;;;;30.63;18.30;;;;;;;2.74;96.01;98098.31;5067358;28;20044;-80
2020/12/29 00:32:14;;;;;;;23.45;14.00;;;;;;;2.69;95.64;98097.44;5068507;28;20024;-81
2020/12/29 00:34:39;;;;;;;20.57;12.40;;;;;;;2.65;95.36;98100.78;5084088;28;20028;-80
2020/12/29 00:37:05;;;;;;;23.33;12.43;;;;;;;2.60;95.16;98097.31;5067542;28;20354;-80
2020/12/29 00:39:30;;;;;;;21.77;12.02;;;;;;;2.59;95.08;98093.09;5066732;28;20481;-80
2020/12/29 00:41:56;;;;;;;19.38;10.90;;;;;;;2.60;95.09;98097.31;5067881;28;20052;-80
2020/12/29 00:44:21;;;;;;;17.33;9.93;;;;;;;2.59;94.98;98098.16;5071128;28;20027;-80
2020/12/29 00:46:46;;;;;;;18.83;11.20;;;;;;;2.57;94.85;98100.66;5089795;28;20020;-80
2020/12/29 00:49:12;;;;;;;17.02;11.13;;;;;;;2.55;94.45;98102.34;5087479;28;20046;-81
2020/12/29 00:51:37;;;;;;;16.60;10.25;;;;;;;2.56;94.27;98106.56;5088622;28;20499;-81
2020/12/29 00:54:02;;;;;;;16.77;10.37;;;;;;;2.57;94.72;98109.94;5066843;28;20034;-80
2020/12/29 00:56:27;;;;;;;17.58;9.85;;;;;;;2.59;94.48;98104.06;5071046;28;20024;-80
2020/12/29 00:58:53;;;;;;;18.92;11.55;;;;;;;2.57;94.62;98108.28;5092036;28;20028;-78
2020/12/29 01:01:18;;;;;;;21.03;10.50;;;;;;;2.61;94.46;98106.66;5069882;28;20054;-80
2020/12/29 01:03:43;;;;;;;18.42;10.40;;;;;;;2.60;94.90;98099.84;5069330;28;20048;-80
2020/12/29 01:06:10;;;;;;;17.97;10.80;;;;;;;2.69;94.63;98110.97;5087764;28;20028;-80
2020/12/29 01:08:35;;;;;;;;;;;;;;;2.69;94.63;98116.03;5088177;28;20281;-79
2020/12/29 01:11:00;;;;;;;15.13;8.83;;;;;;;2.63;94.70;98115.13;5087061;28;19920;-80
2020/12/29 01:13:26;;;;;;;16.80;9.80;;;;;;;2.65;94.58;98118.50;5071115;28;20020;-80
2020/12/29 01:15:52;;;;;;;16.87;9.73;;;;;;;2.62;94.36;98118.47;5068497;28;20030;-80
2020/12/29 01:18:19;;;;;;;17.35;9.60;;;;;;;2.63;94.53;98120.19;5087668;28;20471;-80
2020/12/29 01:20:44;;;;;;;19.73;10.23;;;;;;;2.64;94.34;98122.72;5088104;28;20024;-80
2020/12/29 01:23:11;;;;;;;19.35;11.13;;;;;;;2.73;94.31;98127.91;5087645;28;20031;-80
2020/12/29 01:25:39;;;;;;;17.73;10.77;;;;;;;2.81;93.82;98123.75;5070002;28;20032;-80
2020/12/29 01:28:04;;;;;;;19.50;11.80;;;;;;;2.84;94.03;98130.53;5068803;28;20020;-79
2020/12/29 01:30:29;;;;;;;22.27;11.70;;;;;;;2.84;93.86;98132.22;5070066;28;20055;-81
2020/12/29 01:32:55;;;;;;;23.60;12.77;;;;;;;2.76;93.86;98133.00;5070347;28;20278;-79
2020/12/29 01:35:20;;;;;;;21.03;13.17;;;;;;;2.77;94.08;98131.31;5069108;28;20024;-80
2020/12/29 01:37:46;;;;;;;22.30;12.93;;;;;;;2.84;93.58;98132.22;5089301;28;20028;-80
2020/12/29 01:40:13;;;;;;;25.52;14.23;;;;;;;2.84;93.62;98134.75;5069612;28;20024;-81
2020/12/29 01:42:38;;;;;;;24.10;14.00;;;;;;;2.86;93.51;98128.88;5070340;28;20115;-80
2020/12/29 01:45:09;;;;;;;25.40;14.85;;;;;;;2.81;93.42;98135.56;5069112;28;20055;-79
2020/12/29 01:47:37;;;;;;;24.70;14.00;;;;;;;2.80;93.58;98139.78;5067425;28;20070;-80
2020/12/29 01:50:07;;;;;;;24.07;13.87;;;;;;;2.79;93.55;98143.16;5067432;28;20025;-80
2020/12/29 01:52:35;;;;;;;25.97;14.53;;;;;;;2.74;93.79;98144.81;5071020;28;20080;-80
2020/12/29 01:55:01;;;;;;;27.03;15.57;;;;;;;2.68;94.35;98149.81;5068350;28;20032;-80
2020/12/29 01:57:26;;;;;;;26.35;15.25;;;;;;;2.64;94.55;98147.22;5086734;28;20021;-80
2020/12/29 01:59:52;;;;;;;29.35;15.25;;;;;;;2.62;94.58;98146.34;5068590;28;20119;-82
2020/12/29 02:02:17;;;;;;;27.67;14.88;;;;;;;2.56;95.05;98148.78;5069778;28;20031;-80
2020/12/29 02:04:44;;;;;;;29.60;15.87;;;;;;;2.55;94.76;98152.16;5069524;28;20035;-80
2020/12/29 02:07:10;;;;;;;26.23;14.13;;;;;;;2.56;94.70;98153.88;5083175;28;20080;-80
2020/12/29 02:09:36;;;;;;;25.40;14.60;;;;;;;2.56;94.76;98158.94;5084279;28;20090;-80
2020/12/29 02:12:20;;;;;;;25.35;14.77;;;;;;;2.54;94.58;98158.06;5069875;28;20476;-81
2020/12/29 02:14:46;;;;;;;22.60;13.27;;;;;;;2.52;94.95;98157.19;5069824;28;20115;-80
2020/12/29 02:17:11;;;;;;;28.27;15.38;;;;;;;2.52;95.00;98167.34;5067599;28;20085;-80
2020/12/29 02:19:36;;;;;;;26.60;15.13;;;;;;;2.54;94.85;98165.66;5068599;28;20021;-80
2020/12/29 02:22:02;;;;;;;25.60;15.30;;;;;;;2.55;95.20;98168.22;5066926;28;20085;-80
2020/12/29 02:24:27;;;;;;;30.20;15.77;;;;;;;2.53;94.89;98174.94;5086448;28;20370;-79
2020/12/29 02:26:54;;;;;;;29.43;15.93;;;;;;;2.61;94.85;98177.59;5069711;28;20085;-80
2020/12/29 02:29:19;;;;;;;30.33;16.67;;;;;;;2.65;94.81;98181.88;5068584;28;20766;-78
2020/12/29 02:31:44;;;;;;;26.53;16.07;;;;;;;2.73;94.38;98177.75;5068362;28;20083;-82
2020/12/29 02:34:09;;;;;;;24.03;14.87;;;;;;;2.79;93.67;98193.00;5069422;28;20275;-80
2020/12/29 02:36:35;;;;;;;25.40;15.23;;;;;;;2.83;93.47;98191.38;5085717;28;20028;-80
2020/12/29 02:39:00;;;;;;;26.40;14.93;;;;;;;2.84;93.38;98191.38;5066584;28;20024;-80
2020/12/29 02:41:25;;;;;;;25.50;14.47;;;;;;;2.91;92.92;98192.28;5067479;28;20127;-80
2020/12/29 02:43:50;;;;;;;27.30;14.90;;;;;;;2.90;92.71;98196.50;5067409;28;20285;-79
2020/12/29 02:46:16;;;;;;;22.83;13.40;;;;;;;2.93;93.01;98199.13;5085794;28;20094;-80
2020/12/29 02:48:41;;;;;;;25.20;14.77;;;;;;;2.93;93.05;98193.19;5085698;28;20281;-81
2020/12/29 02:51:07;;;;;;;25.02;15.10;;;;;;;2.96;93.13;98201.69;5066557;28;20016;-79
2020/12/29 02:53:32;;;;;;;24.50;14.15;;;;;;;2.91;93.04;98200.75;5069169;28;20019;-80
2020/12/29 02:55:58;;;;;;;27.05;15.50;;;;;;;2.92;93.02;98204.97;5068353;28;20056;-80
2020/12/29 02:58:23;;;;;;;31.90;17.00;;;;;;;2.92;92.69;98212.59;5067282;28;20024;-80
2020/12/29 03:00:48;;;;;;;27.60;16.17;;;;;;;2.92;92.97;98215.13;5068105;28;20081;-80
2020/12/29 03:03:14;;;;;;;29.10;17.30;;;;;;;2.83;93.07;98215.03;5082673;28;20020;-80
2020/12/29 03:05:40;;;;;;;33.53;18.00;;;;;;;2.86;93.55;98215.06;5067129;28;20012;-80
2020/12/29 03:08:05;;;;;;;32.55;17.95;;;;;;;2.73;93.92;98219.16;5066893;28;20019;-79
2020/12/29 03:10:30;;;;;;;31.37;17.97;;;;;;;2.69;94.25;98222.47;5068423;28;20020;-79
2020/12/29 03:12:55;;;;;;;29.93;17.00;;;;;;;2.68;94.43;98219.94;5068302;28;20285;-80
2020/12/29 03:15:21;;;;;;;28.92;17.75;;;;;;;2.67;94.08;98223.28;5066319;28;20112;-82
2020/12/29 03:17:46;;;;;;;31.43;16.83;;;;;;;2.59;94.49;98224.84;5067765;28;20472;-80
2020/12/29 03:20:11;;;;;;;29.20;16.87;;;;;;;2.65;94.48;98233.41;5069704;28;20279;-80
2020/12/29 03:22:37;;;;;;;25.10;15.37;;;;;;;2.59;94.34;98240.06;5088516;28;20751;-79
2020/12/29 03:25:02;;;;;;;28.47;16.30;;;;;;;2.62;94.21;98242.66;5086882;28;20262;-80
2020/12/29 03:27:27;;;;;;;28.25;16.70;;;;;;;2.57;94.47;98237.50;5068004;28;20056;-78
2020/12/29 03:29:53;;;;;;;29.37;17.33;;;;;;;2.56;94.07;98240.03;5086618;28;20029;-80
2020/12/29 03:32:18;;;;;;;30.60;18.60;;;;;;;2.54;94.49;98237.47;5081900;28;20095;-80
2020/12/29 03:34:43;;;;;;;34.97;17.67;;;;;;;2.56;94.35;98238.34;5067891;28;20115;-81
2020/12/29 03:37:10;;;;;;;27.10;16.60;;;;;;;2.61;94.12;98240.97;5086110;28;20319;-80
2020/12/29 03:39:37;;;;;;;28.53;17.07;;;;;;;2.73;93.40;98243.63;5068222;28;20086;-82
2020/12/29 03:42:04;;;;;;;29.47;17.30;;;;;;;2.80;93.03;98248.81;5085870;28;20035;-79
2020/12/29 03:44:30;;;;;;;29.30;16.90;;;;;;;2.83;92.63;98254.75;5068922;28;20028;-78
2020/12/29 03:46:56;;;;;;;27.88;16.50;;;;;;;2.80;92.25;98253.03;5084670;28;20035;-80
2020/12/29 03:49:21;;;;;;;28.50;15.93;;;;;;;2.75;92.51;98254.66;5066114;28;20028;-80
2020/12/29 03:51:46;;;;;;;26.23;15.52;;;;;;;2.66;92.51;98257.06;5084713;28;20024;-79
2020/12/29 03:54:12;;;;;;;27.63;15.67;;;;;;;2.64;92.67;98253.66;5067810;28;20107;-81
2020/12/29 03:56:37;;;;;;;26.50;16.03;;;;;;;2.58;92.90;98258.63;5066276;28;20285;-79
2020/12/29 03:59:03;;;;;;;24.15;13.50;;;;;;;2.50;92.85;98266.13;5067499;28;20020;-80
2020/12/29 04:01:28;;;;;;;19.17;12.65;;;;;;;2.47;92.54;98263.56;5066938;28;20020;-79
2020/12/29 04:03:53;;;;;;;19.83;12.50;;;;;;;2.47;92.81;98272.00;5068349;28;20024;-80
2020/12/29 04:06:19;;;;;;;19.58;12.57;;;;;;;2.46;92.49;98282.97;5067601;28;20031;-79
2020/12/29 04:08:44;;;;;;;20.05;12.00;;;;;;;2.41;92.80;98281.22;5084944;28;20486;-80
2020/12/29 04:11:11;;;;;;;20.58;11.85;;;;;;;2.42;92.69;98287.97;5085495;28;20058;-79
2020/12/29 04:13:36;;;;;;;19.17;11.13;;;;;;;2.37;92.53;98285.38;5068172;28;20108;-79
2020/12/29 04:16:01;;;;;;;20.85;12.80;;;;;;;2.32;92.61;98293.75;5083325;28;20052;-80
2020/12/29 04:18:27;;;;;;;20.70;12.98;;;;;;;2.21;93.03;98293.56;5088901;28;20031;-79
2020/12/29 04:20:52;;;;;;;22.47;13.87;;;;;;;2.19;92.92;98300.28;5088187;28;20059;-79
2020/12/29 04:23:17;;;;;;;23.80;13.87;;;;;;;2.17;93.17;98301.94;5088543;28;20282;-79
2020/12/29 04:25:42;;;;;;;22.80;13.57;;;;;;;2.16;93.30;98303.63;5088609;28;20024;-79
2020/12/29 04:28:08;;;;;;;22.80;12.73;;;;;;;2.13;92.80;98302.72;5069513;28;20305;-81
2020/12/29 04:30:33;;;;;;;23.50;13.38;;;;;;;2.09;92.99;98304.34;5070400;28;20028;-80
2020/12/29 04:32:58;;;;;;;27.00;14.03;;;;;;;2.03;93.33;98311.00;5070398;28;20028;-81
2020/12/29 04:35:24;;;;;;;24.02;14.00;;;;;;;2.04;93.46;98310.19;5070737;28;20091;-80
2020/12/29 04:37:49;;;;;;;26.05;14.90;;;;;;;2.04;93.28;98310.19;5089862;28;20024;-80
2020/12/29 04:40:14;;;;;;;25.57;14.30;;;;;;;2.05;93.20;98311.88;5088627;28;20029;-79
2020/12/29 04:42:41;;;;;;;23.05;13.85;;;;;;;2.03;93.05;98313.53;5089085;28;20031;-80
2020/12/29 04:45:06;;;;;;;19.97;13.13;;;;;;;2.00;92.90;98308.44;5069938;28;20016;-80
2020/12/29 04:47:32;;;;;;;23.23;13.35;;;;;;;1.90;93.12;98312.47;5068601;28;20025;-80
2020/12/29 04:49:58;;;;;;;22.00;12.68;;;;;;;1.83;93.28;98315.72;5090401;28;20028;-81
2020/12/29 04:52:24;;;;;;;21.07;12.40;;;;;;;1.71;93.65;98318.91;5069747;28;20051;-80
2020/12/29 04:54:51;;;;;;;;;;;;;;;1.74;93.84;98321.47;5088221;28;20489;-79
2020/12/29 04:57:16;;;;;;;21.47;12.37;;;;;;;1.72;94.14;98324.81;5089393;28;19912;-80
2020/12/29 04:59:41;;;;;;;22.37;12.67;;;;;;;1.72;94.07;98333.25;5089384;28;20134;-80
2020/12/29 05:02:07;;;;;;;22.43;13.40;;;;;;;1.66;94.29;98330.63;5069307;28;20481;-80
2020/12/29 05:04:32;;;;;;;20.67;12.57;;;;;;;1.65;94.00;98336.50;5086064;28;20484;-80
2020/12/29 05:06:58;;;;;;;21.83;12.87;;;;;;;1.55;93.97;98340.50;5066995;28;20277;-79
2020/12/29 05:09:25;;;;;;;;;;;;;;;1.51;93.95;98348.03;5072110;28;20262;-79
2020/12/29 05:11:50;;;;;;;15.18;8.60;;;;;;;1.47;94.26;98351.31;5070541;28;19912;-78
2020/12/29 05:14:15;;;;;;;22.20;12.48;;;;;;;1.40;93.84;98354.56;5069670;28;20031;-80
2020/12/29 05:16:42;;;;;;;19.10;11.85;;;;;;;1.23;94.02;98355.06;5068625;28;20024;-80
2020/12/29 05:19:09;;;;;;;19.47;11.93;;;;;;;1.15;94.32;98361.63;5102367;22;20077;-80
2020/12/29 05:21:37;;;;;;;20.47;12.30;;;;;;;1.09;94.63;98379.22;5090022;28;20372;-80
2020/12/29 05:24:11;;;;;;;22.07;11.73;;;;;;;1.08;94.94;98372.44;5078527;28;20031;-81
2020/12/29 05:26:37;;;;;;;23.90;12.50;;;;;;;1.11;94.97;98376.72;5074995;28;20054;-81
2020/12/29 05:29:03;;;;;;;;;;;;;;;1.17;95.21;98382.75;5088703;28;20405;-82
2020/12/29 05:31:31;;;;;;;25.42;13.00;;;;;;;1.15;95.18;98386.91;5084292;28;19920;-81
2020/12/29 05:33:56;;;;;;;24.17;13.17;;;;;;;1.18;95.52;98383.59;5068104;28;20474;-80
2020/12/29 05:36:22;;;;;;;22.47;13.27;;;;;;;1.17;95.47;98381.91;5086793;28;20020;-79
2020/12/29 05:38:47;;;;;;;22.55;12.85;;;;;;;1.15;95.53;98381.84;5068073;28;20283;-82
2020/12/29 05:41:21;;;;;;;24.40;13.87;;;;;;;1.22;95.75;98391.28;5067517;28;20050;-79
2020/12/29 05:44:00;;;;;;;26.60;14.47;;;;;;;1.20;95.89;98390.41;5067786;28;20359;-81
2020/12/29 05:46:28;;;;;;;24.23;13.47;;;;;;;1.30;95.81;98393.09;5065536;28;20048;-79
2020/12/29 05:48:55;;;;;;;23.23;13.33;;;;;;;1.30;95.67;98398.16;5085551;28;20024;-81
2020/12/29 05:51:21;;;;;;;27.70;14.33;;;;;;;1.29;96.01;98396.47;5085223;28;20070;-81
2020/12/29 05:53:47;;;;;;;;;;;;;;;1.28;95.83;98400.66;5086236;28;20040;-79
2020/12/29 05:56:12;;;;;;;25.20;13.60;;;;;;;1.30;95.81;98400.69;5085535;28;19982;-81
2020/12/29 05:58:38;;;;;;;26.95;14.07;;;;;;;1.34;95.83;98405.03;5067273;28;20027;-80
2020/12/29 06:01:03;;;;;;;23.58;14.07;;;;;;;1.45;96.23;98403.56;5066514;28;20020;-79
2020/12/29 06:03:29;;;;;;;29.43;15.23;;;;;;;1.59;95.99;98403.81;5066240;28;20024;-82
2020/12/29 06:05:58;;;;;;;28.30;16.02;;;;;;;1.67;95.78;98410.75;5084171;28;20278;-80
2020/12/29 06:08:27;;;;;;;32.17;16.43;;;;;;;1.78;95.79;98416.03;5085001;28;20024;-80
2020/12/29 06:11:11;;;;;;;27.97;15.07;;;;;;;1.79;95.29;98411.00;5085215;28;20024;-79
2020/12/29 06:13:38;;;;;;;29.10;15.60;;;;;;;1.70;95.31;98415.03;5082533;28;20101;-79
2020/12/29 06:16:03;;;;;;;27.13;15.83;;;;;;;1.87;94.96;98419.56;5083598;28;20035;-79
2020/12/29 06:18:34;;;;;;;28.40;16.00;;;;;;;1.95;94.19;98421.38;5066103;28;20028;-79
2020/12/29 06:21:04;;;;;;;30.27;16.53;;;;;;;1.92;93.90;98426.41;5082544;28;20020;-79
2020/12/29 06:23:38;;;;;;;29.90;16.90;;;;;;;1.89;93.85;98432.25;5066193;28;20020;-79
2020/12/29 06:26:04;;;;;;;27.97;15.37;;;;;;;1.86;93.54;98433.06;5082071;28;20047;-80
2020/12/29 06:28:36;;;;;;;28.83;15.25;;;;;;;1.79;93.53;98432.91;5065336;28;20016;-80
2020/12/29 06:31:02;;;;;;;31.33;16.80;;;;;;;1.72;93.98;98436.16;5064752;28;20441;-81
2020/12/29 06:33:31;;;;;;;34.30;18.13;;;;;;;1.65;94.47;98442.78;5065181;28;20025;-82
2020/12/29 06:35:56;;;;;;;33.33;17.13;;;;;;;1.59;94.83;98462.88;5062110;28;20440;-79
2020/12/29 06:38:29;;;;;;;33.42;17.58;;;;;;;1.55;95.09;98461.09;5064811;28;20080;-80
2020/12/29 06:40:55;;;;;;;33.13;17.07;;;;;;;1.52;95.30;98451.78;5062977;28;20032;-81
2020/12/29 06:43:20;;;;;;;31.05;16.83;;;;;;;1.51;95.81;98451.75;5064743;28;20119;-80
2020/12/29 06:45:46;;;;;;;28.75;15.63;;;;;;;1.52;95.69;98455.97;5081873;28;20055;-80
2020/12/29 06:48:16;;;;;;;30.17;16.52;;;;;;;1.52;96.03;98464.41;5060603;28;20016;-79
2020/12/29 06:50:41;;;;;;;33.53;16.63;;;;;;;1.52;96.07;98466.94;5082179;28;20032;-79
2020/12/29 06:53:07;;;;;;;32.58;16.90;;;;;;;1.51;96.41;98469.44;5082365;28;20486;-79
2020/12/29 06:55:37;;;;;;;31.77;17.13;;;;;;;1.51;96.30;98470.31;5082710;28;20029;-81
2020/12/29 06:58:04;;;;;;;36.17;18.30;;;;;;;1.53;96.33;98473.72;5081755;28;20036;-80
2020/12/29 07:00:30;;;;;;;35.37;18.10;;;;;;;1.56;96.30;98488.97;5063392;28;20016;-79
2020/12/29 07:02:56;;;;;;;37.08;18.45;;;;;;;1.60;96.53;98489.88;5081438;28;20031;-81
2020/12/29 07:05:24;;;;;;;35.42;17.92;;;;;;;1.61;96.50;98491.59;5080683;28;20021;-81
2020/12/29 07:08:04;;;;;;;31.87;16.13;;;;;;;1.63;96.53;98499.25;5082097;28;20024;-81
2020/12/29 07:10:35;;;;;;;28.93;15.30;;;;;;;1.63;96.56;98502.63;5080673;28;20386;-82
2020/12/29 07:13:06;;;;;;;31.97;17.07;;;;;;;1.52;95.87;98506.56;5082356;28;20516;-81
2020/12/29 07:15:42;;;;;;;32.70;16.23;;;;;;;1.44;96.18;98521.59;5062419;28;20020;-82
2020/12/29 07:18:09;;;;;;;31.17;15.73;;;;;;;1.42;96.15;98524.91;5062268;28;20051;-81
2020/12/29 07:20:35;;;;;;;31.97;16.37;;;;;;;1.39;96.01;98520.63;5063477;28;20020;-81
2020/12/29 07:23:04;;;;;;;;;;;;;;;1.38;96.02;98530.72;5063666;28;20055;-79
2020/12/29 07:25:30;;;;;;;33.90;16.30;;;;;;;1.34;95.99;98532.34;5079191;28;19974;-80
2020/12/29 07:27:59;;;;;;;31.45;16.38;;;;;;;1.27;95.78;98532.13;5062469;28;20020;-79
2020/12/29 07:30:26;;;;;;;31.13;16.13;;;;;;;1.22;95.86;98540.47;5062853;28;20032;-79
2020/12/29 07:32:51;;;;;;;30.73;15.63;;;;;;;1.17;95.74;98544.56;5078232;28;20063;-81
2020/12/29 07:35:18;;;;;;;33.28;16.60;;;;;;;1.16;95.60;98547.91;5081481;28;20036;-80
2020/12/29 07:37:49;;;;;;;30.13;16.13;;;;;;;1.16;95.80;98559.72;5062965;28;20029;-79
2020/12/29 07:40:14;;;;;;;29.50;15.23;;;;;;;1.10;95.82;98562.94;5080521;28;20505;-79
2020/12/29 07:42:39;;;;;;;28.93;16.07;;;;;;;1.00;95.63;98561.03;5080161;28;20049;-79
2020/12/29 07:45:04;;;;;;;30.27;16.37;;;;;;;0.98;95.52;98565.19;5061283;28;20259;-79
2020/12/29 07:47:30;;;;;;;32.63;17.67;;;;;;;1.00;95.83;98572.81;5080015;28;20282;-80
2020/12/29 07:49:59;;;;;;;28.73;15.75;;;;;;;1.02;96.09;98579.59;5061091;28;20604;-81
2020/12/29 07:52:25;;;;;;;28.83;14.90;;;;;;;1.03;95.99;98583.84;5064695;28;20021;-80
2020/12/29 07:55:13;;;;;;;35.05;17.60;;;;;;;1.06;96.08;98581.38;5064962;28;20493;-79
2020/12/29 07:57:39;;;;;;;38.73;18.83;;;;;;;1.13;96.12;98588.31;5063921;28;20029;-82
2020/12/29 08:00:09;;;;;;;;;;;;;;;1.20;96.36;98589.31;5065962;28;20024;-80
2020/12/29 08:02:34;;;;;;;30.13;16.63;;;;;;;1.24;96.65;98591.94;5081675;28;19950;-79
2020/12/29 08:05:00;;;;;;;35.40;16.80;;;;;;;1.29;96.69;98591.19;5066180;28;20040;-82
2020/12/29 08:07:25;;;;;;;33.40;16.95;;;;;;;1.31;96.59;98597.16;5063713;28;20338;-80
2020/12/29 08:09:50;;;;;;;34.92;15.73;;;;;;;1.37;96.67;98597.31;5085402;28;20467;-79
2020/12/29 08:12:17;;;;;;;33.43;18.00;;;;;;;1.43;96.93;98599.97;5066399;28;20024;-79
2020/12/29 08:14:43;;;;;;;22.63;11.33;;;;;;;1.50;96.69;98599.28;5066787;28;20274;-80
2020/12/29 08:17:09;;;;;;;21.65;12.52;;;;;;;1.45;96.86;98606.78;5084164;28;20028;-79
2020/12/29 08:19:34;;;;;;;37.75;17.67;;;;;;;1.45;96.67;98600.88;5084615;28;20033;-80
2020/12/29 08:22:05;;;;;;;34.97;18.35;;;;;;;1.53;96.80;98612.88;5084995;28;20080;-79
2020/12/29 08:24:31;;;;;;;25.97;13.70;;;;;;;1.67;96.86;98613.22;5065817;28;20559;-79
2020/12/29 08:26:57;;;;;;;27.35;15.45;;;;;;;1.75;96.62;98615.91;5064998;28;20040;-80
2020/12/29 08:29:23;;;;;;;35.15;18.40;;;;;;;1.83;96.61;98624.53;5083236;28;20048;-80
2020/12/29 08:32:03;;;;;;;33.80;18.25;;;;;;;1.99;96.62;98634.19;5083534;28;20020;-81
2020/12/29 08:34:30;;;;;;;28.77;16.23;;;;;;;2.16;96.43;98625.25;5080887;28;20132;-81
2020/12/29 08:36:59;;;;;;;29.33;15.80;;;;;;;2.34;96.61;98634.94;5065239;28;20478;-79
2020/12/29 08:39:36;;;;;;;28.30;15.50;;;;;;;2.48;96.38;98638.59;5062569;28;20464;-80
2020/12/29 08:42:02;;;;;;;30.47;16.00;;;;;;;2.63;96.62;98635.53;5060284;28;20091;-79
2020/12/29 08:44:30;;;;;;;25.65;15.02;;;;;;;2.74;96.25;98633.19;5083342;28;20067;-80
2020/12/29 08:46:55;;;;;;;22.43;12.97;;;;;;;2.83;95.75;98640.97;5083053;28;20115;-78
2020/12/29 08:49:29;;;;;;;31.13;16.77;;;;;;;2.93;95.36;98642.00;5084902;28;20025;-78
2020/12/29 08:51:55;;;;;;;30.43;18.30;;;;;;;3.01;94.58;98646.38;5062707;28;20032;-80
2020/12/29 08:54:20;;;;;;;30.38;17.17;;;;;;;3.35;93.73;98649.50;5081073;28;20052;-78
2020/12/29 08:56:46;;;;;;;30.40;17.73;;;;;;;3.53;92.78;98646.41;5063410;28;20028;-78
2020/12/29 08:59:15;;;;;;;;;;;;;;;3.63;92.65;98651.69;5082827;28;20017;-78
2020/12/29 09:01:45;;;;;;;30.20;18.90;;;;;;;3.77;92.37;98658.66;5080732;28;19912;-79
2020/12/29 09:04:24;;;;;;;32.57;19.67;;;;;;;3.94;92.30;98664.84;5079353;28;20024;-79
2020/12/29 09:07:04;;;;;;;36.83;21.70;;;;;;;4.02;92.59;98666.66;5064238;28;20029;-79
2020/12/29 09:09:32;;;;;;;33.37;20.03;;;;;;;4.14;91.80;98672.75;5082101;28;20055;-79
2020/12/29 09:12:13;;;;;;;29.43;17.30;;;;;;;4.24;91.10;98675.47;5063529;28;20032;-78
2020/12/29 09:14:50;;;;;;;31.13;17.00;;;;;;;4.29;90.96;98671.28;5080534;28;20028;-78
2020/12/29 09:17:17;;;;;;;32.10;18.47;;;;;;;4.34;90.96;98673.88;5060812;28;20027;-79
2020/12/29 09:19:42;;;;;;;33.87;18.33;;;;;;;4.25;90.82;98676.31;5064215;28;20406;-79
2020/12/29 09:22:12;;;;;;;29.37;18.47;;;;;;;4.23;91.49;98683.91;5064072;28;20032;-79
2020/12/29 09:24:50;;;;;;;33.97;20.07;;;;;;;4.27;91.77;98690.75;5081387;28;20024;-80
2020/12/29 09:27:26;;;;;;;38.60;20.57;;;;;;;4.34;91.63;98691.69;5063478;28;20092;-79
2020/12/29 09:29:52;;;;;;;44.63;24.02;;;;;;;4.33;91.84;98698.44;5062345;28;20189;-79
2020/12/29 09:32:17;;;;;;;34.10;21.33;;;;;;;4.40;92.14;98701.06;5062912;28;20073;-82
2020/12/29 09:34:45;;;;;;;36.40;22.33;;;;;;;4.47;91.77;98703.72;5082530;28;20044;-79
2020/12/29 09:37:10;;;;;;;34.33;21.60;;;;;;;4.72;90.85;98704.88;5065267;28;20302;-79
2020/12/29 09:39:35;;;;;;;32.87;21.30;;;;;;;4.84;90.30;98707.56;5062566;28;20031;-79
2020/12/29 09:42:00;;;;;;;37.00;22.80;;;;;;;4.84;89.84;98717.75;5064740;28;20278;-79
2020/12/29 09:44:26;;;;;;;35.60;21.87;;;;;;;4.95;90.34;98716.22;5082805;28;20393;-79
2020/12/29 09:46:51;;;;;;;34.37;21.40;;;;;;;5.09;90.66;98725.69;5081862;28;20020;-81
2020/12/29 09:49:16;;;;;;;35.57;21.63;;;;;;;5.21;89.71;98724.16;5064562;28;20123;-78
2020/12/29 09:51:41;;;;;;;38.70;23.43;;;;;;;5.26;89.65;98731.81;5063983;28;20652;-80
2020/12/29 09:54:07;;;;;;;38.90;22.92;;;;;;;5.24;89.04;98736.03;5081263;28;20040;-79
2020/12/29 09:56:32;;;;;;;42.33;24.37;;;;;;;5.27;89.30;98738.63;5081554;28;20044;-77
2020/12/29 09:58:57;;;;;;;31.17;20.83;;;;;;;5.25;88.19;98735.22;5062698;28;20025;-81
2020/12/29 10:01:22;;;;;;;38.17;22.50;;;;;;;4.90;89.75;98752.59;5079258;28;20710;-81
2020/12/29 10:03:48;;;;;;;36.43;23.53;;;;;;;4.96;90.60;98745.03;5061436;28;20035;-81
2020/12/29 10:06:16;;;;;;;33.70;23.13;;;;;;;4.92;90.24;98751.78;5061701;28;20051;-80
2020/12/29 10:08:42;;;;;;;34.87;22.73;;;;;;;4.90;89.68;98760.25;5078889;28;20028;-78
2020/12/29 10:11:10;;;;;;;37.03;23.42;;;;;;;4.92;90.66;98768.75;5062463;28;20054;-78
2020/12/29 10:13:35;;;;;;;34.13;20.37;;;;;;;4.89;90.64;98766.16;5062020;28;20685;-79
2020/12/29 10:16:01;;;;;;;29.57;20.37;;;;;;;4.93;90.78;98770.44;5058964;28;20017;-79
2020/12/29 10:18:26;;;;;;;31.93;19.80;;;;;;;5.11;91.01;98770.66;5080355;28;20271;-78
2020/12/29 10:20:52;;;;;;;33.93;18.77;;;;;;;5.19;89.74;98775.84;5081095;28;20056;-78
2020/12/29 10:23:17;;;;;;;25.05;18.05;;;;;;;5.20;89.32;98780.09;5060779;28;20036;-81
2020/12/29 10:25:42;;;;;;;28.23;18.00;;;;;;;5.25;90.39;98781.03;5061765;28;20024;-80
2020/12/29 10:28:07;;;;;;;24.73;17.37;;;;;;;5.28;89.72;98787.00;5062188;28;20119;-79
2020/12/29 10:30:33;;;;;;;25.37;16.97;;;;;;;5.32;89.82;98792.97;5064126;28;20266;-80
2020/12/29 10:32:58;;;;;;;22.00;16.23;;;;;;;5.42;89.62;98791.38;5082112;28;20040;-78
2020/12/29 10:35:23;;;;;;;21.17;15.13;;;;;;;5.45;89.28;98793.97;5082777;28;20285;-81
2020/12/29 10:37:49;;;;;;;20.20;14.15;;;;;;;5.39;88.63;98796.44;5081505;28;20092;-80
2020/12/29 10:40:14;;;;;;;20.88;12.65;;;;;;;5.46;88.82;98799.06;5064228;28;20021;-81
2020/12/29 10:42:39;;;;;;;19.47;13.23;;;;;;;5.29;88.64;98796.34;5063457;28;20029;-80
2020/12/29 10:45:05;;;;;;;21.35;13.57;;;;;;;5.26;89.69;98809.03;5082500;28;20266;-81
2020/12/29 10:47:30;;;;;;;22.65;13.70;;;;;;;5.27;90.15;98797.16;5082419;28;20055;-79
2020/12/29 10:49:55;;;;;;;20.55;13.65;;;;;;;5.25;89.04;98801.38;5083321;28;20462;-79
2020/12/29 10:52:24;;;;;;;19.93;13.43;;;;;;;5.32;89.00;98808.25;5065021;28;20027;-81
2020/12/29 10:54:49;;;;;;;19.93;13.73;;;;;;;5.23;89.75;98805.59;5065439;28;20278;-81
2020/12/29 10:57:14;;;;;;;20.87;13.57;;;;;;;5.29;89.71;98809.06;5084090;28;20047;-80
2020/12/29 10:59:39;;;;;;;22.97;15.00;;;;;;;5.54;89.49;98810.22;5061694;28;20024;-81
2020/12/29 11:02:05;;;;;;;20.90;13.73;;;;;;;6.53;87.46;98808.59;5082320;28;20633;-81
2020/12/29 11:04:30;;;;;;;17.75;12.30;;;;;;;7.94;81.75;98799.81;5064117;28;20044;-79
2020/12/29 11:06:55;;;;;;;14.37;9.63;;;;;;;9.18;79.77;98800.56;5062414;28;20028;-82
2020/12/29 11:09:21;;;;;;;14.53;8.93;;;;;;;10.37;72.45;98794.75;5062360;28;20311;-79
2020/12/29 11:11:47;;;;;;;11.47;7.30;;;;;;;10.98;69.17;98798.44;5081244;28;20029;-81
2020/12/29 11:14:13;;;;;;;11.25;6.90;;;;;;;10.24;69.80;98803.44;5065343;28;20385;-79
2020/12/29 11:16:38;;;;;;;13.55;7.28;;;;;;;9.34;72.63;98807.34;5063774;28;20028;-82
2020/12/29 11:19:03;;;;;;;10.77;7.70;;;;;;;9.36;76.00;98807.31;5101861;22;20493;-77
2020/12/29 11:21:28;;;;;;;10.45;6.57;;;;;;;8.95;72.83;98812.59;5081039;28;20067;-78
2020/12/29 11:23:54;;;;;;;12.60;7.13;;;;;;;9.04;74.37;98815.13;5067249;28;20017;-77